sensor_id;sensor_type;location;lat;lon;timestamp;P1;durP1;ratioP1;P2;durP2;ratioP2
3591;SDS011;1810;48.720;9.094;2022-12-07T00:01:45;396.73;;;377.83;;
3591;SDS011;1810;48.720;9.094;2022-12-07T00:04:15;403.92;;;384.75;;
3591;SDS011;1810;48.720;9.094;2022-12-07T00:06:47;443.27;;;421.77;;
3591;SDS011;1810;48.720;9.094;2022-12-07T00:09:19;385.53;;;367.43;;
3591;SDS011;1810;48.720;9.094;2022-12-07T00:11:48;415.35;;;395.58;;
3591;SDS011;1810;48.720;9.094;2022-12-07T00:14:19;453.17;;;431.27;;
3591;SDS011;1810;48.720;9.094;2022-12-07T00:16:49;503.05;;;477.58;;
3591;SDS011;1810;48.720;9.094;2022-12-07T00:19:20;475.45;;;452.27;;
3591;SDS011;1810;48.720;9.094;2022-12-07T00:21:51;415.63;;;395.83;;
3591;SDS011;1810;48.720;9.094;2022-12-07T00:24:20;476.60;;;453.30;;
3591;SDS011;1810;48.720;9.094;2022-12-07T00:26:48;460.58;;;438.33;;
3591;SDS011;1810;48.720;9.094;2022-12-07T00:29:18;428.48;;;407.88;;
3591;SDS011;1810;48.720;9.094;2022-12-07T00:31:49;428.55;;;407.80;;
3591;SDS011;1810;48.720;9.094;2022-12-07T00:34:19;487.60;;;463.85;;
3591;SDS011;1810;48.720;9.094;2022-12-07T00:36:50;407.23;;;387.02;;
3591;SDS011;1810;48.720;9.094;2022-12-07T00:39:20;487.17;;;463.58;;
3591;SDS011;1810;48.720;9.094;2022-12-07T00:41:49;396.40;;;377.70;;
3591;SDS011;1810;48.720;9.094;2022-12-07T00:44:18;355.63;;;339.10;;
3591;SDS011;1810;48.720;9.094;2022-12-07T00:46:48;416.42;;;396.75;;
3591;SDS011;1810;48.720;9.094;2022-12-07T00:49:16;394.88;;;376.40;;
3591;SDS011;1810;48.720;9.094;2022-12-07T00:51:47;439.48;;;418.60;;
3591;SDS011;1810;48.720;9.094;2022-12-07T00:54:18;348.83;;;332.52;;
3591;SDS011;1810;48.720;9.094;2022-12-07T00:56:47;484.08;;;460.38;;
3591;SDS011;1810;48.720;9.094;2022-12-07T00:59:16;460.42;;;438.15;;
3591;SDS011;1810;48.720;9.094;2022-12-07T01:01:44;482.27;;;458.95;;
3591;SDS011;1810;48.720;9.094;2022-12-07T01:04:14;488.30;;;464.20;;
3591;SDS011;1810;48.720;9.094;2022-12-07T01:06:43;429.63;;;408.73;;
3591;SDS011;1810;48.720;9.094;2022-12-07T01:09:12;438.55;;;417.55;;
3591;SDS011;1810;48.720;9.094;2022-12-07T01:11:42;414.45;;;394.63;;
3591;SDS011;1810;48.720;9.094;2022-12-07T01:14:12;466.52;;;443.45;;
3591;SDS011;1810;48.720;9.094;2022-12-07T01:16:41;511.15;;;485.50;;
3591;SDS011;1810;48.720;9.094;2022-12-07T01:19:10;481.52;;;457.98;;
3591;SDS011;1810;48.720;9.094;2022-12-07T01:21:39;478.80;;;454.98;;
3591;SDS011;1810;48.720;9.094;2022-12-07T01:24:09;475.15;;;452.08;;
3591;SDS011;1810;48.720;9.094;2022-12-07T01:26:38;471.20;;;448.05;;
3591;SDS011;1810;48.720;9.094;2022-12-07T01:29:09;465.00;;;442.13;;
3591;SDS011;1810;48.720;9.094;2022-12-07T01:31:38;469.48;;;446.10;;
3591;SDS011;1810;48.720;9.094;2022-12-07T01:34:07;469.15;;;445.50;;
3591;SDS011;1810;48.720;9.094;2022-12-07T01:36:37;451.55;;;429.33;;
3591;SDS011;1810;48.720;9.094;2022-12-07T01:39:06;476.20;;;452.73;;
3591;SDS011;1810;48.720;9.094;2022-12-07T01:41:37;454.65;;;432.38;;
3591;SDS011;1810;48.720;9.094;2022-12-07T01:44:14;462.65;;;439.52;;
3591;SDS011;1810;48.720;9.094;2022-12-07T01:46:48;478.33;;;454.73;;
3591;SDS011;1810;48.720;9.094;2022-12-07T01:49:20;444.77;;;423.27;;
3591;SDS011;1810;48.720;9.094;2022-12-07T01:51:57;466.90;;;444.33;;
3591;SDS011;1810;48.720;9.094;2022-12-07T01:54:36;461.05;;;438.73;;
3591;SDS011;1810;48.720;9.094;2022-12-07T01:57:05;457.92;;;435.45;;
3591;SDS011;1810;48.720;9.094;2022-12-07T01:59:36;450.17;;;428.27;;
3591;SDS011;1810;48.720;9.094;2022-12-07T02:02:07;433.50;;;412.33;;
3591;SDS011;1810;48.720;9.094;2022-12-07T02:04:38;492.80;;;468.27;;
3591;SDS011;1810;48.720;9.094;2022-12-07T02:07:07;456.25;;;434.15;;
3591;SDS011;1810;48.720;9.094;2022-12-07T02:09:36;447.45;;;426.00;;
3591;SDS011;1810;48.720;9.094;2022-12-07T02:12:05;471.25;;;448.48;;
3591;SDS011;1810;48.720;9.094;2022-12-07T02:14:35;459.95;;;437.67;;
3591;SDS011;1810;48.720;9.094;2022-12-07T02:17:07;460.02;;;437.80;;
3591;SDS011;1810;48.720;9.094;2022-12-07T02:20:05;474.63;;;451.52;;
3591;SDS011;1810;48.720;9.094;2022-12-07T02:25:35;467.83;;;445.17;;
3591;SDS011;1810;48.720;9.094;2022-12-07T02:28:19;443.00;;;421.55;;
3591;SDS011;1810;48.720;9.094;2022-12-07T02:30:58;477.88;;;454.67;;
3591;SDS011;1810;48.720;9.094;2022-12-07T02:33:31;481.02;;;457.17;;
3591;SDS011;1810;48.720;9.094;2022-12-07T02:36:04;466.17;;;443.40;;
3591;SDS011;1810;48.720;9.094;2022-12-07T02:38:37;485.10;;;461.35;;
3591;SDS011;1810;48.720;9.094;2022-12-07T02:41:09;472.40;;;449.40;;
3591;SDS011;1810;48.720;9.094;2022-12-07T02:43:41;452.00;;;430.05;;
3591;SDS011;1810;48.720;9.094;2022-12-07T02:46:14;478.35;;;455.02;;
3591;SDS011;1810;48.720;9.094;2022-12-07T02:48:45;471.92;;;448.85;;
3591;SDS011;1810;48.720;9.094;2022-12-07T02:51:16;465.88;;;443.52;;
3591;SDS011;1810;48.720;9.094;2022-12-07T02:53:45;436.77;;;415.58;;
3591;SDS011;1810;48.720;9.094;2022-12-07T02:56:16;458.23;;;436.02;;
3591;SDS011;1810;48.720;9.094;2022-12-07T02:58:50;466.65;;;444.08;;
3591;SDS011;1810;48.720;9.094;2022-12-07T03:01:30;476.50;;;452.85;;
3591;SDS011;1810;48.720;9.094;2022-12-07T03:04:06;476.30;;;453.10;;
3591;SDS011;1810;48.720;9.094;2022-12-07T03:06:46;433.38;;;412.52;;
3591;SDS011;1810;48.720;9.094;2022-12-07T03:09:20;478.98;;;455.90;;
3591;SDS011;1810;48.720;9.094;2022-12-07T03:11:53;454.27;;;432.43;;
3591;SDS011;1810;48.720;9.094;2022-12-07T03:14:27;435.10;;;414.33;;
3591;SDS011;1810;48.720;9.094;2022-12-07T03:17:02;466.80;;;443.90;;
3591;SDS011;1810;48.720;9.094;2022-12-07T03:19:34;399.70;;;381.05;;
3591;SDS011;1810;48.720;9.094;2022-12-07T03:22:05;452.42;;;430.45;;
3591;SDS011;1810;48.720;9.094;2022-12-07T03:24:39;446.88;;;425.38;;
3591;SDS011;1810;48.720;9.094;2022-12-07T03:27:10;444.33;;;423.02;;
3591;SDS011;1810;48.720;9.094;2022-12-07T03:29:42;456.30;;;434.42;;
3591;SDS011;1810;48.720;9.094;2022-12-07T03:32:15;448.60;;;426.95;;
3591;SDS011;1810;48.720;9.094;2022-12-07T03:34:48;397.27;;;378.73;;
3591;SDS011;1810;48.720;9.094;2022-12-07T03:37:21;462.42;;;440.08;;
3591;SDS011;1810;48.720;9.094;2022-12-07T03:42:26;390.60;;;372.73;;
3591;SDS011;1810;48.720;9.094;2022-12-07T03:44:55;438.20;;;417.42;;
3591;SDS011;1810;48.720;9.094;2022-12-07T03:47:26;457.85;;;435.58;;
3591;SDS011;1810;48.720;9.094;2022-12-07T03:50:00;439.60;;;418.65;;
3591;SDS011;1810;48.720;9.094;2022-12-07T03:52:34;464.73;;;442.13;;
3591;SDS011;1810;48.720;9.094;2022-12-07T03:55:08;462.58;;;440.17;;
3591;SDS011;1810;48.720;9.094;2022-12-07T03:57:41;465.65;;;443.00;;
3591;SDS011;1810;48.720;9.094;2022-12-07T04:00:11;412.08;;;392.48;;
3591;SDS011;1810;48.720;9.094;2022-12-07T04:02:42;471.00;;;447.90;;
3591;SDS011;1810;48.720;9.094;2022-12-07T04:05:11;485.63;;;461.88;;
3591;SDS011;1810;48.720;9.094;2022-12-07T04:07:40;400.33;;;381.63;;
3591;SDS011;1810;48.720;9.094;2022-12-07T04:10:09;465.80;;;442.98;;
3591;SDS011;1810;48.720;9.094;2022-12-07T04:12:38;454.92;;;432.67;;
3591;SDS011;1810;48.720;9.094;2022-12-07T04:15:08;459.52;;;437.20;;
3591;SDS011;1810;48.720;9.094;2022-12-07T04:17:37;470.67;;;447.90;;
3591;SDS011;1810;48.720;9.094;2022-12-07T04:20:08;468.02;;;445.20;;
3591;SDS011;1810;48.720;9.094;2022-12-07T04:22:37;403.48;;;384.33;;
3591;SDS011;1810;48.720;9.094;2022-12-07T04:25:06;465.48;;;442.85;;
3591;SDS011;1810;48.720;9.094;2022-12-07T04:27:35;441.92;;;420.75;;
3591;SDS011;1810;48.720;9.094;2022-12-07T04:30:04;466.65;;;444.02;;
3591;SDS011;1810;48.720;9.094;2022-12-07T04:32:34;478.88;;;455.73;;
3591;SDS011;1810;48.720;9.094;2022-12-07T04:35:02;456.00;;;434.08;;
3591;SDS011;1810;48.720;9.094;2022-12-07T04:37:33;513.17;;;487.23;;
3591;SDS011;1810;48.720;9.094;2022-12-07T04:40:02;462.33;;;439.80;;
3591;SDS011;1810;48.720;9.094;2022-12-07T04:42:31;378.35;;;360.75;;
3591;SDS011;1810;48.720;9.094;2022-12-07T04:44:59;469.58;;;446.58;;
3591;SDS011;1810;48.720;9.094;2022-12-07T04:47:28;470.17;;;446.88;;
3591;SDS011;1810;48.720;9.094;2022-12-07T04:49:56;470.15;;;446.88;;
3591;SDS011;1810;48.720;9.094;2022-12-07T04:52:25;467.58;;;444.50;;
3591;SDS011;1810;48.720;9.094;2022-12-07T04:54:56;440.65;;;419.38;;
3591;SDS011;1810;48.720;9.094;2022-12-07T04:57:24;396.77;;;377.83;;
3591;SDS011;1810;48.720;9.094;2022-12-07T04:59:53;361.45;;;344.38;;
3591;SDS011;1810;48.720;9.094;2022-12-07T05:02:21;426.13;;;405.58;;
3591;SDS011;1810;48.720;9.094;2022-12-07T05:04:49;407.25;;;387.98;;
3591;SDS011;1810;48.720;9.094;2022-12-07T05:07:18;350.40;;;333.75;;
3591;SDS011;1810;48.720;9.094;2022-12-07T05:09:46;201.15;;;192.77;;
3591;SDS011;1810;48.720;9.094;2022-12-07T05:12:16;316.40;;;302.02;;
3591;SDS011;1810;48.720;9.094;2022-12-07T05:14:45;279.35;;;266.40;;
3591;SDS011;1810;48.720;9.094;2022-12-07T05:17:13;199.80;;;191.30;;
3591;SDS011;1810;48.720;9.094;2022-12-07T05:19:42;182.32;;;174.73;;
3591;SDS011;1810;48.720;9.094;2022-12-07T05:22:20;343.00;;;327.05;;
3591;SDS011;1810;48.720;9.094;2022-12-07T05:27:25;242.10;;;231.50;;
3591;SDS011;1810;48.720;9.094;2022-12-07T05:29:53;165.02;;;158.20;;
3591;SDS011;1810;48.720;9.094;2022-12-07T05:45:41;238.75;;;228.73;;
3591;SDS011;1810;48.720;9.094;2022-12-07T05:48:10;232.30;;;222.77;;
3591;SDS011;1810;48.720;9.094;2022-12-07T05:50:38;368.17;;;351.60;;
3591;SDS011;1810;48.720;9.094;2022-12-07T05:53:09;290.90;;;278.52;;
3591;SDS011;1810;48.720;9.094;2022-12-07T05:55:41;343.15;;;327.83;;
3591;SDS011;1810;48.720;9.094;2022-12-07T05:58:10;380.98;;;362.63;;
3591;SDS011;1810;48.720;9.094;2022-12-07T06:00:55;294.73;;;282.08;;
3591;SDS011;1810;48.720;9.094;2022-12-07T06:03:24;282.73;;;270.75;;
3591;SDS011;1810;48.720;9.094;2022-12-07T06:05:52;323.90;;;309.63;;
3591;SDS011;1810;48.720;9.094;2022-12-07T06:08:21;272.27;;;260.77;;
3591;SDS011;1810;48.720;9.094;2022-12-07T06:10:50;370.23;;;351.60;;
3591;SDS011;1810;48.720;9.094;2022-12-07T06:13:39;270.85;;;259.30;;
3591;SDS011;1810;48.720;9.094;2022-12-07T06:16:13;285.23;;;272.83;;
3591;SDS011;1810;48.720;9.094;2022-12-07T06:18:42;362.70;;;346.27;;
3591;SDS011;1810;48.720;9.094;2022-12-07T06:21:11;390.05;;;370.40;;
3591;SDS011;1810;48.720;9.094;2022-12-07T06:23:40;269.98;;;258.40;;
3591;SDS011;1810;48.720;9.094;2022-12-07T06:26:09;295.80;;;282.85;;
3591;SDS011;1810;48.720;9.094;2022-12-07T06:28:39;361.60;;;345.20;;
3591;SDS011;1810;48.720;9.094;2022-12-07T06:31:08;283.05;;;270.35;;
3591;SDS011;1810;48.720;9.094;2022-12-07T06:33:41;327.98;;;313.33;;
3591;SDS011;1810;48.720;9.094;2022-12-07T06:36:09;290.48;;;277.58;;
3591;SDS011;1810;48.720;9.094;2022-12-07T06:38:39;335.92;;;320.00;;
3591;SDS011;1810;48.720;9.094;2022-12-07T06:41:08;217.52;;;208.40;;
3591;SDS011;1810;48.720;9.094;2022-12-07T06:43:36;314.30;;;300.25;;
3591;SDS011;1810;48.720;9.094;2022-12-07T06:46:05;235.75;;;225.77;;
3591;SDS011;1810;48.720;9.094;2022-12-07T06:48:34;249.10;;;238.25;;
3591;SDS011;1810;48.720;9.094;2022-12-07T06:51:04;250.90;;;240.43;;
3591;SDS011;1810;48.720;9.094;2022-12-07T06:53:33;179.15;;;171.40;;
3591;SDS011;1810;48.720;9.094;2022-12-07T06:56:02;199.30;;;190.88;;
3591;SDS011;1810;48.720;9.094;2022-12-07T06:58:31;254.88;;;243.18;;
3591;SDS011;1810;48.720;9.094;2022-12-07T07:00:59;174.77;;;167.48;;
3591;SDS011;1810;48.720;9.094;2022-12-07T07:03:29;177.13;;;169.75;;
3591;SDS011;1810;48.720;9.094;2022-12-07T07:05:58;263.00;;;251.63;;
3591;SDS011;1810;48.720;9.094;2022-12-07T07:08:28;317.58;;;302.77;;
3591;SDS011;1810;48.720;9.094;2022-12-07T07:10:57;217.73;;;208.85;;
3591;SDS011;1810;48.720;9.094;2022-12-07T07:13:26;206.25;;;197.85;;
3591;SDS011;1810;48.720;9.094;2022-12-07T07:15:54;195.98;;;187.95;;
3591;SDS011;1810;48.720;9.094;2022-12-07T07:18:23;297.17;;;284.10;;
3591;SDS011;1810;48.720;9.094;2022-12-07T07:20:52;325.23;;;309.85;;
3591;SDS011;1810;48.720;9.094;2022-12-07T07:23:21;243.23;;;232.98;;
3591;SDS011;1810;48.720;9.094;2022-12-07T07:25:51;285.13;;;272.17;;
3591;SDS011;1810;48.720;9.094;2022-12-07T07:28:19;200.05;;;191.85;;
3591;SDS011;1810;48.720;9.094;2022-12-07T07:30:48;212.82;;;203.80;;
3591;SDS011;1810;48.720;9.094;2022-12-07T07:33:17;340.15;;;322.95;;
3591;SDS011;1810;48.720;9.094;2022-12-07T07:35:46;213.73;;;204.35;;
3591;SDS011;1810;48.720;9.094;2022-12-07T07:38:14;259.17;;;247.77;;
3591;SDS011;1810;48.720;9.094;2022-12-07T07:40:43;486.63;;;459.63;;
3591;SDS011;1810;48.720;9.094;2022-12-07T07:43:13;185.18;;;177.30;;
3591;SDS011;1810;48.720;9.094;2022-12-07T07:45:41;179.82;;;172.40;;
3591;SDS011;1810;48.720;9.094;2022-12-07T07:48:10;171.48;;;164.48;;
3591;SDS011;1810;48.720;9.094;2022-12-07T07:50:39;178.02;;;170.35;;
3591;SDS011;1810;48.720;9.094;2022-12-07T07:53:07;208.95;;;199.65;;
3591;SDS011;1810;48.720;9.094;2022-12-07T07:55:36;263.75;;;252.00;;
3591;SDS011;1810;48.720;9.094;2022-12-07T07:58:04;342.63;;;326.13;;
3591;SDS011;1810;48.720;9.094;2022-12-07T08:00:34;463.23;;;439.25;;
3591;SDS011;1810;48.720;9.094;2022-12-07T08:03:03;161.55;;;154.30;;
3591;SDS011;1810;48.720;9.094;2022-12-07T08:05:31;242.38;;;231.90;;
3591;SDS011;1810;48.720;9.094;2022-12-07T08:08:00;189.43;;;181.25;;
3591;SDS011;1810;48.720;9.094;2022-12-07T08:10:29;155.35;;;148.75;;
3591;SDS011;1810;48.720;9.094;2022-12-07T08:12:58;163.63;;;156.80;;
3591;SDS011;1810;48.720;9.094;2022-12-07T08:15:41;202.13;;;193.60;;
3591;SDS011;1810;48.720;9.094;2022-12-07T08:18:11;329.65;;;313.45;;
3591;SDS011;1810;48.720;9.094;2022-12-07T08:20:41;215.90;;;206.82;;
3591;SDS011;1810;48.720;9.094;2022-12-07T08:23:10;237.32;;;226.77;;
3591;SDS011;1810;48.720;9.094;2022-12-07T08:25:39;211.52;;;202.45;;
3591;SDS011;1810;48.720;9.094;2022-12-07T08:28:08;243.75;;;233.13;;
3591;SDS011;1810;48.720;9.094;2022-12-07T08:30:37;237.43;;;227.38;;
3591;SDS011;1810;48.720;9.094;2022-12-07T08:33:07;217.30;;;208.30;;
3591;SDS011;1810;48.720;9.094;2022-12-07T08:35:37;218.38;;;209.07;;
3591;SDS011;1810;48.720;9.094;2022-12-07T08:38:06;362.42;;;345.17;;
3591;SDS011;1810;48.720;9.094;2022-12-07T08:40:34;375.55;;;355.27;;
3591;SDS011;1810;48.720;9.094;2022-12-07T08:43:03;309.60;;;295.27;;
3591;SDS011;1810;48.720;9.094;2022-12-07T08:45:31;202.73;;;194.27;;
3591;SDS011;1810;48.720;9.094;2022-12-07T08:48:02;207.68;;;199.13;;
3591;SDS011;1810;48.720;9.094;2022-12-07T08:50:36;199.40;;;191.15;;
3591;SDS011;1810;48.720;9.094;2022-12-07T08:53:14;240.82;;;230.68;;
3591;SDS011;1810;48.720;9.094;2022-12-07T08:55:43;251.25;;;240.20;;
3591;SDS011;1810;48.720;9.094;2022-12-07T08:58:11;195.45;;;187.23;;
3591;SDS011;1810;48.720;9.094;2022-12-07T09:00:40;192.95;;;184.93;;
3591;SDS011;1810;48.720;9.094;2022-12-07T09:03:10;193.95;;;185.60;;
3591;SDS011;1810;48.720;9.094;2022-12-07T09:05:38;264.80;;;252.88;;
3591;SDS011;1810;48.720;9.094;2022-12-07T09:08:07;180.82;;;173.27;;
3591;SDS011;1810;48.720;9.094;2022-12-07T09:10:36;179.32;;;171.90;;
3591;SDS011;1810;48.720;9.094;2022-12-07T09:13:05;178.20;;;170.93;;
3591;SDS011;1810;48.720;9.094;2022-12-07T09:15:33;252.90;;;241.95;;
3591;SDS011;1810;48.720;9.094;2022-12-07T09:18:02;396.80;;;377.17;;
3591;SDS011;1810;48.720;9.094;2022-12-07T09:20:33;184.75;;;177.02;;
3591;SDS011;1810;48.720;9.094;2022-12-07T09:23:01;165.18;;;158.07;;
3591;SDS011;1810;48.720;9.094;2022-12-07T09:25:30;145.77;;;139.77;;
3591;SDS011;1810;48.720;9.094;2022-12-07T09:27:58;155.10;;;148.82;;
3591;SDS011;1810;48.720;9.094;2022-12-07T09:30:27;184.02;;;176.45;;
3591;SDS011;1810;48.720;9.094;2022-12-07T09:32:56;144.05;;;138.10;;
3591;SDS011;1810;48.720;9.094;2022-12-07T09:35:25;183.27;;;175.70;;
3591;SDS011;1810;48.720;9.094;2022-12-07T09:37:55;149.63;;;143.55;;
3591;SDS011;1810;48.720;9.094;2022-12-07T09:40:24;143.65;;;137.68;;
3591;SDS011;1810;48.720;9.094;2022-12-07T09:42:53;148.63;;;142.68;;
3591;SDS011;1810;48.720;9.094;2022-12-07T09:45:23;154.93;;;148.63;;
3591;SDS011;1810;48.720;9.094;2022-12-07T09:47:52;170.98;;;163.60;;
3591;SDS011;1810;48.720;9.094;2022-12-07T09:50:23;150.07;;;143.73;;
3591;SDS011;1810;48.720;9.094;2022-12-07T09:52:54;156.90;;;149.93;;
3591;SDS011;1810;48.720;9.094;2022-12-07T09:55:30;154.43;;;148.13;;
3591;SDS011;1810;48.720;9.094;2022-12-07T09:58:00;154.90;;;148.50;;
3591;SDS011;1810;48.720;9.094;2022-12-07T10:00:29;143.75;;;137.93;;
3591;SDS011;1810;48.720;9.094;2022-12-07T10:02:58;145.63;;;139.77;;
3591;SDS011;1810;48.720;9.094;2022-12-07T10:05:28;145.45;;;139.38;;
3591;SDS011;1810;48.720;9.094;2022-12-07T10:08:01;144.75;;;138.80;;
3591;SDS011;1810;48.720;9.094;2022-12-07T10:10:30;140.52;;;134.68;;
3591;SDS011;1810;48.720;9.094;2022-12-07T10:13:04;139.60;;;134.00;;
3591;SDS011;1810;48.720;9.094;2022-12-07T10:15:41;145.70;;;139.68;;
3591;SDS011;1810;48.720;9.094;2022-12-07T10:18:17;137.73;;;132.13;;
3591;SDS011;1810;48.720;9.094;2022-12-07T10:20:47;135.40;;;129.90;;
3591;SDS011;1810;48.720;9.094;2022-12-07T10:23:18;250.90;;;239.38;;
3591;SDS011;1810;48.720;9.094;2022-12-07T10:25:46;133.00;;;127.32;;
3591;SDS011;1810;48.720;9.094;2022-12-07T10:28:16;134.18;;;128.70;;
3591;SDS011;1810;48.720;9.094;2022-12-07T10:30:53;136.18;;;130.43;;
3591;SDS011;1810;48.720;9.094;2022-12-07T10:33:29;135.40;;;129.88;;
3591;SDS011;1810;48.720;9.094;2022-12-07T10:36:01;161.55;;;154.77;;
3591;SDS011;1810;48.720;9.094;2022-12-07T10:38:47;135.67;;;130.27;;
3591;SDS011;1810;48.720;9.094;2022-12-07T10:41:16;135.20;;;129.75;;
3591;SDS011;1810;48.720;9.094;2022-12-07T10:43:52;139.38;;;133.65;;
3591;SDS011;1810;48.720;9.094;2022-12-07T10:49:42;135.80;;;130.25;;
3591;SDS011;1810;48.720;9.094;2022-12-07T10:52:30;132.80;;;127.50;;
3591;SDS011;1810;48.720;9.094;2022-12-07T10:55:18;109.32;;;104.80;;
3591;SDS011;1810;48.720;9.094;2022-12-07T10:57:53;159.88;;;152.82;;
3591;SDS011;1810;48.720;9.094;2022-12-07T11:00:31;139.35;;;133.70;;
3591;SDS011;1810;48.720;9.094;2022-12-07T11:03:06;126.40;;;121.18;;
3591;SDS011;1810;48.720;9.094;2022-12-07T11:06:03;145.80;;;139.32;;
3591;SDS011;1810;48.720;9.094;2022-12-07T11:08:39;153.32;;;147.13;;
3591;SDS011;1810;48.720;9.094;2022-12-07T11:11:18;136.55;;;130.95;;
3591;SDS011;1810;48.720;9.094;2022-12-07T11:13:52;136.10;;;130.48;;
3591;SDS011;1810;48.720;9.094;2022-12-07T11:16:36;132.88;;;127.47;;
3591;SDS011;1810;48.720;9.094;2022-12-07T11:19:24;144.23;;;138.40;;
3591;SDS011;1810;48.720;9.094;2022-12-07T11:22:03;117.45;;;112.35;;
3591;SDS011;1810;48.720;9.094;2022-12-07T11:24:39;135.73;;;130.02;;
3591;SDS011;1810;48.720;9.094;2022-12-07T11:27:16;121.65;;;116.63;;
3591;SDS011;1810;48.720;9.094;2022-12-07T11:29:53;142.77;;;136.85;;
3591;SDS011;1810;48.720;9.094;2022-12-07T11:32:43;122.78;;;117.75;;
3591;SDS011;1810;48.720;9.094;2022-12-07T11:35:30;115.10;;;110.30;;
3591;SDS011;1810;48.720;9.094;2022-12-07T11:38:07;107.22;;;102.85;;
3591;SDS011;1810;48.720;9.094;2022-12-07T11:40:39;112.53;;;107.53;;
3591;SDS011;1810;48.720;9.094;2022-12-07T11:43:13;107.32;;;102.65;;
3591;SDS011;1810;48.720;9.094;2022-12-07T11:45:46;139.35;;;133.65;;
3591;SDS011;1810;48.720;9.094;2022-12-07T11:48:20;145.52;;;139.38;;
3591;SDS011;1810;48.720;9.094;2022-12-07T11:50:52;107.50;;;103.03;;
3591;SDS011;1810;48.720;9.094;2022-12-07T11:53:29;133.20;;;127.07;;
3591;SDS011;1810;48.720;9.094;2022-12-07T11:56:00;105.32;;;100.93;;
3591;SDS011;1810;48.720;9.094;2022-12-07T11:58:44;192.10;;;183.73;;
3591;SDS011;1810;48.720;9.094;2022-12-07T12:03:52;135.50;;;130.07;;
3591;SDS011;1810;48.720;9.094;2022-12-07T12:06:23;149.38;;;142.77;;
3591;SDS011;1810;48.720;9.094;2022-12-07T12:08:53;135.85;;;130.32;;
3591;SDS011;1810;48.720;9.094;2022-12-07T12:11:56;201.68;;;192.00;;
3591;SDS011;1810;48.720;9.094;2022-12-07T12:14:59;173.10;;;166.02;;
3591;SDS011;1810;48.720;9.094;2022-12-07T12:20:28;104.82;;;100.32;;
3591;SDS011;1810;48.720;9.094;2022-12-07T12:22:59;131.52;;;126.18;;
3591;SDS011;1810;48.720;9.094;2022-12-07T12:25:36;182.02;;;174.10;;
3591;SDS011;1810;48.720;9.094;2022-12-07T12:28:15;137.45;;;131.85;;
3591;SDS011;1810;48.720;9.094;2022-12-07T12:33:36;147.55;;;141.77;;
3591;SDS011;1810;48.720;9.094;2022-12-07T12:39:10;158.65;;;152.40;;
3591;SDS011;1810;48.720;9.094;2022-12-07T12:41:59;163.50;;;156.93;;
3591;SDS011;1810;48.720;9.094;2022-12-07T12:44:39;151.85;;;145.88;;
3591;SDS011;1810;48.720;9.094;2022-12-07T12:47:40;207.10;;;198.57;;
3591;SDS011;1810;48.720;9.094;2022-12-07T12:50:20;137.57;;;132.05;;
3591;SDS011;1810;48.720;9.094;2022-12-07T12:58:49;333.58;;;317.45;;
3591;SDS011;1810;48.720;9.094;2022-12-07T13:01:48;149.23;;;143.15;;
3591;SDS011;1810;48.720;9.094;2022-12-07T13:04:21;182.18;;;174.88;;
3591;SDS011;1810;48.720;9.094;2022-12-07T13:06:52;510.70;;;481.48;;
3591;SDS011;1810;48.720;9.094;2022-12-07T13:09:22;172.93;;;165.93;;
3591;SDS011;1810;48.720;9.094;2022-12-07T13:11:56;154.93;;;148.73;;
3591;SDS011;1810;48.720;9.094;2022-12-07T13:14:41;177.05;;;170.00;;
3591;SDS011;1810;48.720;9.094;2022-12-07T13:20:41;169.23;;;162.25;;
3591;SDS011;1810;48.720;9.094;2022-12-07T13:23:16;219.15;;;210.00;;
3591;SDS011;1810;48.720;9.094;2022-12-07T13:25:54;160.85;;;154.45;;
3591;SDS011;1810;48.720;9.094;2022-12-07T13:28:43;240.23;;;230.02;;
3591;SDS011;1810;48.720;9.094;2022-12-07T13:31:14;169.90;;;163.07;;
3591;SDS011;1810;48.720;9.094;2022-12-07T13:33:50;173.05;;;166.10;;
3591;SDS011;1810;48.720;9.094;2022-12-07T13:36:22;282.70;;;270.58;;
3591;SDS011;1810;48.720;9.094;2022-12-07T13:38:52;235.95;;;225.68;;
3591;SDS011;1810;48.720;9.094;2022-12-07T13:41:22;179.70;;;172.45;;
3591;SDS011;1810;48.720;9.094;2022-12-07T13:43:53;176.25;;;169.18;;
3591;SDS011;1810;48.720;9.094;2022-12-07T13:46:31;180.90;;;173.63;;
3591;SDS011;1810;48.720;9.094;2022-12-07T13:49:17;277.70;;;265.42;;
3591;SDS011;1810;48.720;9.094;2022-12-07T13:51:50;184.27;;;177.00;;
3591;SDS011;1810;48.720;9.094;2022-12-07T13:54:19;190.40;;;182.82;;
3591;SDS011;1810;48.720;9.094;2022-12-07T13:56:49;208.07;;;199.38;;
3591;SDS011;1810;48.720;9.094;2022-12-07T13:59:19;317.25;;;302.15;;
3591;SDS011;1810;48.720;9.094;2022-12-07T14:01:49;507.05;;;478.67;;
3591;SDS011;1810;48.720;9.094;2022-12-07T14:04:29;192.60;;;184.77;;
3591;SDS011;1810;48.720;9.094;2022-12-07T14:07:01;171.40;;;164.65;;
3591;SDS011;1810;48.720;9.094;2022-12-07T14:09:58;186.05;;;178.65;;
3591;SDS011;1810;48.720;9.094;2022-12-07T14:12:28;193.75;;;185.95;;
3591;SDS011;1810;48.720;9.094;2022-12-07T14:14:59;224.82;;;215.73;;
3591;SDS011;1810;48.720;9.094;2022-12-07T14:17:30;176.15;;;169.27;;
3591;SDS011;1810;48.720;9.094;2022-12-07T14:19:59;209.98;;;201.57;;
3591;SDS011;1810;48.720;9.094;2022-12-07T14:22:54;204.23;;;196.07;;
3591;SDS011;1810;48.720;9.094;2022-12-07T14:25:45;317.50;;;302.98;;
3591;SDS011;1810;48.720;9.094;2022-12-07T14:31:10;213.00;;;204.50;;
3591;SDS011;1810;48.720;9.094;2022-12-07T14:33:51;336.27;;;320.42;;
3591;SDS011;1810;48.720;9.094;2022-12-07T14:36:21;257.98;;;247.00;;
3591;SDS011;1810;48.720;9.094;2022-12-07T14:38:52;223.25;;;213.90;;
3591;SDS011;1810;48.720;9.094;2022-12-07T14:41:25;193.50;;;185.75;;
3591;SDS011;1810;48.720;9.094;2022-12-07T14:44:23;268.25;;;256.73;;
3591;SDS011;1810;48.720;9.094;2022-12-07T14:47:00;190.18;;;182.68;;
3591;SDS011;1810;48.720;9.094;2022-12-07T14:49:51;197.55;;;189.60;;
3591;SDS011;1810;48.720;9.094;2022-12-07T14:52:23;459.38;;;434.10;;
3591;SDS011;1810;48.720;9.094;2022-12-07T14:55:24;193.60;;;185.43;;
3591;SDS011;1810;48.720;9.094;2022-12-07T14:57:54;182.30;;;174.85;;
3591;SDS011;1810;48.720;9.094;2022-12-07T15:00:25;268.55;;;257.02;;
3591;SDS011;1810;48.720;9.094;2022-12-07T15:02:56;219.20;;;210.32;;
3591;SDS011;1810;48.720;9.094;2022-12-07T15:05:28;324.15;;;308.27;;
3591;SDS011;1810;48.720;9.094;2022-12-07T15:22:25;291.42;;;278.77;;
3591;SDS011;1810;48.720;9.094;2022-12-07T15:25:03;184.13;;;176.57;;
3591;SDS011;1810;48.720;9.094;2022-12-07T15:27:33;179.45;;;172.10;;
3591;SDS011;1810;48.720;9.094;2022-12-07T15:30:05;182.00;;;174.57;;
3591;SDS011;1810;48.720;9.094;2022-12-07T15:32:34;358.52;;;341.02;;
3591;SDS011;1810;48.720;9.094;2022-12-07T15:35:05;184.57;;;176.90;;
3591;SDS011;1810;48.720;9.094;2022-12-07T15:37:34;202.77;;;194.38;;
3591;SDS011;1810;48.720;9.094;2022-12-07T15:40:03;227.40;;;217.95;;
3591;SDS011;1810;48.720;9.094;2022-12-07T15:42:33;253.93;;;243.38;;
3591;SDS011;1810;48.720;9.094;2022-12-07T15:45:05;209.30;;;200.68;;
3591;SDS011;1810;48.720;9.094;2022-12-07T15:47:34;254.63;;;243.90;;
3591;SDS011;1810;48.720;9.094;2022-12-07T15:50:25;305.98;;;291.70;;
3591;SDS011;1810;48.720;9.094;2022-12-07T15:52:54;196.93;;;188.82;;
3591;SDS011;1810;48.720;9.094;2022-12-07T15:55:23;258.38;;;246.77;;